Time;durP1;ratioP1;P1;durP2;ratioP2;P2;SDS_P1;SDS_P2;PMS_P1;PMS_P2;Temp;Humidity;BMP_temperature;BMP_pressure;BME280_temperature;BME280_humidity;BME280_pressure;Samples;Min_cycle;Max_cycle;Signal;HPM_P1;HPM_P2
2024/02/26 00:02:17;;;;;;;3.90;3.60;;;6.80;47.10;;;;;;4991262;28;20234;-63
2024/02/26 00:04:44;;;;;;;4.13;3.83;;;6.80;46.30;;;;;;4991951;28;20265;-63
2024/02/26 00:07:11;;;;;;;4.03;3.63;;;6.80;46.00;;;;;;4975857;28;20215;-62
2024/02/26 00:09:37;;;;;;;3.30;3.00;;;6.90;46.10;;;;;;4986840;28;20242;-63
2024/02/26 00:12:04;;;;;;;4.70;3.47;;;6.60;46.90;;;;;;4990476;28;20258;-62
2024/02/26 00:14:31;;;;;;;5.37;3.57;;;6.70;46.60;;;;;;4995215;28;20249;-63
2024/02/26 00:16:57;;;;;;;3.50;3.20;;;6.80;46.60;;;;;;4994860;28;20891;-63
2024/02/26 00:19:24;;;;;;;3.70;3.40;;;6.70;46.50;;;;;;4995495;28;20280;-62
2024/02/26 00:21:50;;;;;;;3.53;3.23;;;6.80;46.40;;;;;;4995095;28;20229;-63
2024/02/26 00:24:17;;;;;;;3.57;3.27;;;6.90;46.10;;;;;;4995348;28;20905;-63
2024/02/26 00:26:43;;;;;;;3.50;3.20;;;6.80;45.20;;;;;;4994406;28;20215;-61
2024/02/26 00:29:10;;;;;;;3.70;3.40;;;6.80;45.20;;;;;;4992522;28;20235;-63
2024/02/26 00:31:36;;;;;;;3.50;3.20;;;6.80;45.50;;;;;;4991884;28;20229;-62
2024/02/26 00:34:03;;;;;;;3.40;3.10;;;6.80;44.60;;;;;;4994404;28;20249;-63
2024/02/26 00:36:29;;;;;;;3.13;2.83;;;6.60;45.20;;;;;;4994729;28;20265;-63
2024/02/26 00:38:56;;;;;;;3.17;2.97;;;6.70;44.70;;;;;;4994559;28;20552;-63
2024/02/26 00:41:23;;;;;;;3.40;3.10;;;6.70;45.10;;;;;;4994711;28;20239;-63
2024/02/26 00:43:49;;;;;;;3.70;3.40;;;6.60;45.00;;;;;;4994245;28;20215;-63
2024/02/26 00:46:16;;;;;;;3.43;3.13;;;6.60;45.20;;;;;;4989096;28;20246;-63
2024/02/26 00:48:43;;;;;;;3.00;2.80;;;6.70;45.00;;;;;;4993388;28;20277;-63
2024/02/26 00:51:09;;;;;;;4.87;3.50;;;6.70;45.00;;;;;;4994116;28;20298;-63
2024/02/26 00:53:36;;;;;;;3.30;3.10;;;6.80;44.80;;;;;;4994018;28;20265;-63
2024/02/26 00:56:02;;;;;;;4.10;3.80;;;6.50;45.40;;;;;;4994775;28;20293;-63
2024/02/26 00:58:29;;;;;;;4.40;3.60;;;6.60;45.80;;;;;;4994752;28;20234;-62
2024/02/26 01:00:55;;;;;;;4.17;3.60;;;6.50;45.80;;;;;;4994749;28;20238;-63
2024/02/26 01:03:22;;;;;;;3.80;3.50;;;6.50;45.90;;;;;;4988597;28;20210;-63
2024/02/26 01:05:48;;;;;;;5.63;3.27;;;6.50;45.70;;;;;;4994286;28;20214;-63
2024/02/26 01:08:15;;;;;;;3.57;3.20;;;6.40;45.70;;;;;;4994692;28;20604;-63
2024/02/26 01:10:42;;;;;;;3.40;3.10;;;6.50;45.40;;;;;;4994407;28;20267;-63
2024/02/26 01:13:08;;;;;;;3.63;3.33;;;6.50;45.50;;;;;;4990872;28;20230;-63
2024/02/26 01:15:35;;;;;;;3.30;3.00;;;6.40;45.10;;;;;;4994086;28;20210;-63
2024/02/26 01:18:01;;;;;;;3.63;3.40;;;6.50;45.30;;;;;;4994188;28;20294;-64
2024/02/26 01:20:28;;;;;;;3.60;3.30;;;6.40;45.40;;;;;;4984666;28;20682;-63
2024/02/26 01:22:54;;;;;;;4.10;3.67;;;6.40;45.20;;;;;;4991946;28;20289;-64
2024/02/26 01:25:21;;;;;;;3.23;3.03;;;6.40;45.30;;;;;;4993060;28;20559;-63
2024/02/26 01:27:47;;;;;;;3.67;3.37;;;6.40;45.20;;;;;;4993914;28;20235;-63
2024/02/26 01:30:16;;;;;;;3.50;3.20;;;6.40;45.40;;;;;;4994294;28;20260;-63
2024/02/26 01:32:42;;;;;;;3.53;3.23;;;6.30;45.20;;;;;;4993365;28;20246;-62
2024/02/26 01:35:11;;;;;;;3.27;3.00;;;6.30;45.20;;;;;;4994082;28;20297;-63
2024/02/26 01:37:37;;;;;;;4.00;3.70;;;6.30;45.80;;;;;;4982665;28;20214;-63
2024/02/26 01:40:05;;;;;;;3.47;3.27;;;6.30;45.30;;;;;;4992379;28;20205;-63
2024/02/26 01:42:32;;;;;;;3.83;3.03;;;6.30;45.30;;;;;;4994143;28;20265;-63
2024/02/26 01:44:58;;;;;;;3.40;3.10;;;6.40;45.20;;;;;;4994552;28;20225;-63
2024/02/26 01:47:25;;;;;;;3.63;3.33;;;6.20;45.50;;;;;;4994665;28;20222;-63
2024/02/26 01:49:51;;;;;;;3.67;3.37;;;6.20;45.90;;;;;;4993314;28;20733;-63
2024/02/26 01:52:18;;;;;;;3.30;3.10;;;6.20;45.60;;;;;;4994053;28;20680;-63
2024/02/26 01:54:44;;;;;;;3.33;3.07;;;6.30;45.50;;;;;;4989587;28;20218;-63
2024/02/26 01:57:11;;;;;;;3.70;3.40;;;6.30;45.30;;;;;;4991348;28;20248;-63
2024/02/26 01:59:37;;;;;;;3.30;3.10;;;6.40;45.10;;;;;;4993251;28;20221;-63
2024/02/26 02:02:04;;;;;;;3.87;3.50;;;6.40;45.10;;;;;;4992996;28;20293;-63
2024/02/26 02:04:31;;;;;;;3.70;3.40;;;6.30;45.20;;;;;;4993753;28;20264;-63
2024/02/26 02:06:57;;;;;;;3.90;3.60;;;6.20;45.40;;;;;;4993411;28;20281;-63
2024/02/26 02:09:24;;;;;;;3.30;3.10;;;6.20;45.50;;;;;;4993103;28;20790;-63
2024/02/26 02:11:50;;;;;;;3.27;3.00;;;6.20;45.40;;;;;;4988502;28;20246;-63
2024/02/26 02:14:17;;;;;;;3.40;3.20;;;6.20;45.30;;;;;;4984403;28;20686;-63
2024/02/26 02:16:43;;;;;;;3.50;3.17;;;6.10;45.20;;;;;;4992981;28;20573;-63
2024/02/26 02:19:10;;;;;;;3.47;3.17;;;6.10;45.50;;;;;;4992784;28;20747;-63
2024/02/26 02:21:36;;;;;;;3.60;3.33;;;6.20;45.10;;;;;;4992827;28;20864;-63
2024/02/26 02:24:03;;;;;;;3.20;3.00;;;6.20;45.20;;;;;;4988356;28;20265;-62
2024/02/26 02:26:29;;;;;;;3.30;3.07;;;6.10;45.20;;;;;;4993210;28;20316;-63
2024/02/26 02:28:56;;;;;;;3.57;3.27;;;6.10;45.30;;;;;;4983548;28;20227;-63
2024/02/26 02:31:22;;;;;;;3.80;3.50;;;6.00;45.50;;;;;;4996038;28;20234;-63
2024/02/26 02:33:49;;;;;;;3.53;3.33;;;6.00;45.40;;;;;;4994385;28;20634;-63
2024/02/26 02:36:15;;;;;;;3.80;3.40;;;6.00;45.60;;;;;;4992780;28;20210;-63
2024/02/26 02:38:42;;;;;;;3.70;3.40;;;6.00;45.80;;;;;;4993078;28;20742;-63
2024/02/26 02:41:08;;;;;;;3.23;3.03;;;6.10;45.20;;;;;;4993261;28;20210;-63
2024/02/26 02:43:35;;;;;;;3.20;2.90;;;6.00;45.30;;;;;;4986789;28;20211;-63
2024/02/26 02:46:02;;;;;;;3.40;3.20;;;6.00;45.20;;;;;;4988154;28;20204;-63
2024/02/26 02:48:29;;;;;;;3.10;2.90;;;5.90;45.50;;;;;;4983459;28;20324;-64
2024/02/26 02:50:55;;;;;;;3.17;2.97;;;6.00;45.30;;;;;;4983780;28;20241;-63
2024/02/26 02:53:22;;;;;;;3.47;2.90;;;5.90;45.50;;;;;;4987550;28;20613;-64
2024/02/26 02:55:48;;;;;;;3.03;2.73;;;5.90;45.50;;;;;;4987646;28;20217;-64
2024/02/26 02:58:15;;;;;;;3.30;3.10;;;5.90;45.40;;;;;;4991880;28;20636;-64
2024/02/26 03:00:41;;;;;;;3.03;2.83;;;5.90;45.70;;;;;;4992739;28;20354;-64
2024/02/26 03:03:08;;;;;;;3.50;3.07;;;5.90;45.80;;;;;;4992159;28;20233;-63
2024/02/26 03:05:34;;;;;;;3.30;3.10;;;5.90;44.80;;;;;;4992477;28;20211;-64
2024/02/26 03:08:01;;;;;;;3.30;3.10;;;5.90;45.10;;;;;;4992061;28;20271;-64
2024/02/26 03:10:27;;;;;;;3.00;2.80;;;5.80;45.50;;;;;;4988512;28;20210;-63
2024/02/26 03:12:54;;;;;;;3.30;3.00;;;5.80;45.60;;;;;;4979865;28;20611;-64
2024/02/26 03:15:21;;;;;;;2.93;2.73;;;5.80;45.70;;;;;;4988515;28;20278;-63
2024/02/26 03:17:47;;;;;;;3.20;3.00;;;5.80;45.20;;;;;;4992022;28;21106;-63
2024/02/26 03:20:14;;;;;;;3.40;3.10;;;5.80;45.60;;;;;;4990837;28;20733;-63
2024/02/26 03:22:40;;;;;;;2.83;2.63;;;5.70;45.40;;;;;;4991687;28;20232;-63
2024/02/26 03:25:07;;;;;;;3.00;2.80;;;5.60;45.30;;;;;;4992069;28;20246;-63
2024/02/26 03:27:34;;;;;;;3.03;2.83;;;5.70;45.50;;;;;;4991888;28;20277;-63
2024/02/26 03:30:00;;;;;;;3.00;2.80;;;5.70;45.50;;;;;;4984825;28;20652;-63
2024/02/26 03:32:27;;;;;;;3.07;2.77;;;5.60;45.30;;;;;;4989711;28;20323;-63
2024/02/26 03:34:54;;;;;;;3.00;2.80;;;5.70;45.40;;;;;;4991693;28;20209;-63
2024/02/26 03:37:20;;;;;;;3.20;2.90;;;5.60;45.50;;;;;;4992008;28;20656;-63
2024/02/26 03:39:46;;;;;;;2.83;2.63;;;5.50;45.70;;;;;;4992000;28;20260;-63
2024/02/26 03:42:12;;;;;;;2.77;2.67;;;5.60;45.60;;;;;;4991527;28;20225;-63
2024/02/26 03:44:39;;;;;;;3.37;2.73;;;5.60;45.70;;;;;;4990777;28;20250;-63
2024/02/26 03:47:05;;;;;;;2.90;2.70;;;5.60;45.50;;;;;;4984953;28;20901;-63
2024/02/26 03:49:32;;;;;;;3.90;3.00;;;5.60;45.70;;;;;;4990741;28;20234;-63
2024/02/26 03:51:58;;;;;;;3.03;2.83;;;5.60;45.50;;;;;;4995690;28;20269;-63
2024/02/26 03:54:25;;;;;;;3.30;2.67;;;5.50;45.50;;;;;;4995457;28;20249;-63
2024/02/26 03:56:52;;;;;;;3.27;2.87;;;5.60;45.80;;;;;;4995464;28;20766;-63
2024/02/26 03:59:19;;;;;;;3.20;2.97;;;5.60;45.70;;;;;;4995428;28;20269;-63
2024/02/26 04:01:45;;;;;;;3.20;3.00;;;5.50;45.50;;;;;;4995359;28;20234;-63
2024/02/26 04:04:12;;;;;;;2.93;2.73;;;5.60;45.70;;;;;;4989094;28;20232;-63
2024/02/26 04:06:38;;;;;;;3.10;2.90;;;5.50;45.60;;;;;;4994886;28;20679;-63
2024/02/26 04:09:05;;;;;;;2.93;2.73;;;5.50;45.70;;;;;;4993256;28;20238;-63
2024/02/26 04:11:31;;;;;;;3.00;2.80;;;5.60;45.50;;;;;;4990175;28;20288;-63
2024/02/26 04:13:58;;;;;;;2.87;2.67;;;5.60;45.70;;;;;;4992116;28;20273;-63
2024/02/26 04:16:24;;;;;;;2.87;2.67;;;5.60;45.80;;;;;;4994598;28;20209;-63
2024/02/26 04:18:53;;;;;;;2.80;2.60;;;5.60;45.90;;;;;;4994924;28;20218;-63
2024/02/26 04:21:19;;;;;;;3.10;2.80;;;5.70;45.70;;;;;;4994828;28;20287;-63
2024/02/26 04:23:46;;;;;;;3.43;3.13;;;5.60;45.70;;;;;;4987318;28;20210;-63
2024/02/26 04:26:12;;;;;;;3.07;2.80;;;5.50;46.10;;;;;;4995558;28;20250;-63
2024/02/26 04:28:39;;;;;;;2.80;2.60;;;5.60;45.60;;;;;;4995098;28;20316;-63
2024/02/26 04:31:05;;;;;;;3.03;2.83;;;5.50;45.50;;;;;;4991143;28;20213;-63
2024/02/26 04:33:32;;;;;;;3.10;2.90;;;5.60;45.20;;;;;;4995441;28;20218;-63
2024/02/26 04:35:59;;;;;;;2.97;2.67;;;5.60;45.20;;;;;;4994857;28;20210;-63
2024/02/26 04:38:26;;;;;;;2.90;2.70;;;5.60;45.10;;;;;;4995071;28;20218;-63
2024/02/26 04:40:52;;;;;;;3.00;2.70;;;5.60;45.00;;;;;;4989395;28;20267;-63
2024/02/26 04:43:19;;;;;;;3.10;2.80;;;5.60;45.20;;;;;;4993030;28;20225;-63
2024/02/26 04:45:46;;;;;;;3.07;2.87;;;5.60;45.50;;;;;;4992742;28;20213;-63
2024/02/26 04:48:12;;;;;;;3.27;3.07;;;5.60;45.30;;;;;;4995393;28;20210;-63
2024/02/26 04:50:39;;;;;;;3.00;2.80;;;5.60;45.10;;;;;;4992425;28;20804;-62
2024/02/26 04:53:05;;;;;;;2.80;2.60;;;5.60;45.50;;;;;;4994429;28;20295;-63
2024/02/26 04:55:32;;;;;;;2.70;2.50;;;5.60;45.30;;;;;;4983030;28;20210;-63
2024/02/26 04:57:58;;;;;;;3.23;3.03;;;5.60;45.30;;;;;;4994686;28;20217;-63
2024/02/26 05:00:25;;;;;;;2.70;2.50;;;5.60;45.70;;;;;;4993223;28;20205;-62
2024/02/26 05:02:51;;;;;;;2.53;2.40;;;5.60;45.60;;;;;;4994253;28;20237;-63
2024/02/26 05:05:18;;;;;;;4.00;2.60;;;5.50;45.50;;;;;;4994422;28;20235;-62
2024/02/26 05:07:45;;;;;;;2.50;2.40;;;5.60;45.60;;;;;;4994862;28;20289;-63
2024/02/26 05:10:11;;;;;;;2.73;2.53;;;5.60;45.50;;;;;;4985431;28;20281;-63
2024/02/26 05:12:38;;;;;;;2.50;2.30;;;5.60;45.20;;;;;;4982276;28;20229;-63
2024/02/26 05:15:05;;;;;;;2.93;2.73;;;5.60;45.20;;;;;;4994615;28;20202;-63
2024/02/26 05:17:31;;;;;;;3.00;2.67;;;5.60;45.00;;;;;;4994251;28;20701;-63
2024/02/26 05:19:58;;;;;;;2.57;2.37;;;5.50;45.20;;;;;;4994248;28;20240;-63
2024/02/26 05:22:24;;;;;;;2.80;2.60;;;5.60;45.30;;;;;;4994652;28;20226;-63
2024/02/26 05:24:51;;;;;;;2.77;2.60;;;5.60;45.10;;;;;;4994907;28;20205;-63
2024/02/26 05:27:18;;;;;;;2.87;2.67;;;5.60;44.80;;;;;;4981929;28;20209;-63
2024/02/26 05:29:44;;;;;;;2.73;2.53;;;5.60;45.20;;;;;;4996168;28;20702;-63
2024/02/26 05:32:11;;;;;;;2.70;2.50;;;5.70;45.00;;;;;;4988264;28;20224;-63
2024/02/26 05:34:37;;;;;;;3.00;2.53;;;5.60;45.20;;;;;;4994029;28;20216;-62
2024/02/26 05:37:04;;;;;;;2.90;2.70;;;5.60;45.20;;;;;;4993701;28;20315;-63
2024/02/26 05:39:30;;;;;;;3.00;2.80;;;5.60;45.50;;;;;;4993506;28;20669;-62
2024/02/26 05:41:57;;;;;;;2.40;2.30;;;5.60;45.70;;;;;;4985781;28;20289;-63
2024/02/26 05:44:24;;;;;;;2.47;2.27;;;5.60;45.90;;;;;;4993370;28;20243;-63
2024/02/26 05:46:50;;;;;;;2.67;2.47;;;5.70;45.30;;;;;;4986220;28;20217;-63
2024/02/26 05:49:17;;;;;;;2.70;2.50;;;5.70;44.70;;;;;;4993196;28;20278;-63
2024/02/26 05:51:43;;;;;;;3.37;3.07;;;5.70;44.70;;;;;;4987066;28;20280;-63
2024/02/26 05:54:10;;;;;;;3.90;2.67;;;5.90;44.40;;;;;;4992046;28;20217;-63
2024/02/26 05:56:37;;;;;;;2.80;2.60;;;5.80;44.20;;;;;;4987975;28;20213;-63
2024/02/26 05:59:03;;;;;;;2.80;2.60;;;5.80;44.20;;;;;;4990211;28;20245;-63
2024/02/26 06:01:30;;;;;;;3.33;2.90;;;5.90;44.10;;;;;;4987678;28;20274;-63
2024/02/26 06:03:56;;;;;;;2.60;2.40;;;5.90;43.60;;;;;;4987765;28;20811;-63
2024/02/26 06:06:23;;;;;;;4.10;2.63;;;5.90;43.90;;;;;;4990730;28;20214;-63
2024/02/26 06:08:50;;;;;;;3.03;2.80;;;5.90;43.90;;;;;;4990818;28;20214;-63
2024/02/26 06:11:16;;;;;;;3.00;2.80;;;5.90;44.10;;;;;;4984262;28;20596;-63
2024/02/26 06:13:43;;;;;;;2.77;2.50;;;5.90;44.30;;;;;;4989243;28;20237;-63
2024/02/26 06:16:09;;;;;;;2.90;2.70;;;6.00;44.40;;;;;;4984102;28;20903;-62
2024/02/26 06:18:36;;;;;;;3.43;3.20;;;6.00;44.20;;;;;;4981975;28;20244;-63
2024/02/26 06:21:02;;;;;;;4.13;2.97;;;6.00;43.80;;;;;;4988719;28;20264;-63
2024/02/26 06:23:29;;;;;;;3.20;3.00;;;6.00;43.60;;;;;;4987969;28;20208;-63
2024/02/26 06:25:55;;;;;;;3.63;3.30;;;6.00;43.30;;;;;;4986987;28;20206;-62
2024/02/26 06:28:22;;;;;;;3.50;3.20;;;6.00;43.60;;;;;;4986711;28;20286;-63
2024/02/26 06:30:50;;;;;;;5.23;3.20;;;6.00;43.80;;;;;;4987112;28;20264;-63
2024/02/26 06:33:16;;;;;;;2.70;2.50;;;6.00;43.80;;;;;;4986195;28;20210;-62
2024/02/26 06:35:43;;;;;;;3.23;2.93;;;6.00;43.80;;;;;;4987913;28;20782;-63
2024/02/26 06:38:12;;;;;;;3.53;2.80;;;6.10;43.50;;;;;;4991181;28;20663;-62
2024/02/26 06:40:39;;;;;;;2.97;2.53;;;6.20;43.60;;;;;;4984928;28;20265;-63
2024/02/26 06:43:05;;;;;;;2.80;2.60;;;6.30;43.50;;;;;;4990400;28;20720;-63
2024/02/26 06:45:32;;;;;;;2.63;2.50;;;6.30;43.40;;;;;;4991986;28;20438;-63
2024/02/26 06:47:59;;;;;;;3.47;3.17;;;6.40;43.60;;;;;;4990366;28;20218;-63
2024/02/26 06:50:25;;;;;;;2.83;2.63;;;6.30;43.80;;;;;;4992123;28;20402;-63
2024/02/26 06:52:52;;;;;;;3.50;3.10;;;6.30;43.80;;;;;;4992962;28;20229;-63
2024/02/26 06:55:18;;;;;;;3.10;2.80;;;6.30;43.90;;;;;;4986359;28;20207;-63
2024/02/26 06:57:45;;;;;;;3.97;2.87;;;6.30;44.20;;;;;;4988139;28;20210;-63
2024/02/26 07:00:14;;;;;;;4.00;3.00;;;6.30;44.50;;;;;;4974738;28;20257;-63
2024/02/26 07:02:40;;;;;;;3.47;3.13;;;6.40;43.90;;;;;;4974688;28;20235;-63
2024/02/26 07:05:07;;;;;;;3.77;3.03;;;6.50;43.90;;;;;;4976866;28;20210;-63
2024/02/26 07:07:33;;;;;;;7.70;3.43;;;6.60;44.00;;;;;;4986264;28;20636;-62
2024/02/26 07:10:03;;;;;;;4.37;2.87;;;6.60;43.60;;;;;;4989260;28;20230;-63
2024/02/26 07:12:29;;;;;;;3.60;3.13;;;6.60;43.70;;;;;;4983464;28;20233;-63
2024/02/26 07:14:56;;;;;;;3.53;3.07;;;6.60;43.80;;;;;;4988222;28;20242;-63
2024/02/26 07:17:22;;;;;;;3.10;2.90;;;6.60;43.80;;;;;;4977672;28;20203;-64
2024/02/26 07:19:49;;;;;;;4.63;3.37;;;6.60;43.90;;;;;;4985892;28;20262;-63
2024/02/26 07:22:15;;;;;;;5.97;3.30;;;6.60;44.00;;;;;;4985868;28;20256;-64
2024/02/26 07:24:42;;;;;;;3.60;3.10;;;6.70;43.80;;;;;;4983813;28;20225;-62
2024/02/26 07:27:09;;;;;;;4.80;3.03;;;6.70;44.20;;;;;;4989468;28;20242;-63
2024/02/26 07:29:35;;;;;;;5.77;3.00;;;6.80;43.90;;;;;;4997521;28;20277;-63
2024/02/26 07:32:02;;;;;;;3.20;2.90;;;6.80;43.80;;;;;;4996522;28;20749;-63
2024/02/26 07:34:29;;;;;;;4.00;3.60;;;6.90;43.80;;;;;;4994882;28;20693;-63
2024/02/26 07:36:55;;;;;;;4.70;3.27;;;6.90;43.60;;;;;;4997368;28;20661;-63
2024/02/26 07:39:22;;;;;;;7.77;3.70;;;6.80;44.20;;;;;;4995644;28;20272;-64
2024/02/26 07:41:51;;;;;;;4.83;2.97;;;6.90;44.30;;;;;;4991457;28;20244;-63
2024/02/26 07:44:17;;;;;;;3.83;3.03;;;7.00;44.70;;;;;;4996125;28;20211;-63
2024/02/26 07:46:44;;;;;;;4.83;3.50;;;7.20;44.20;;;;;;4989158;28;20268;-64
2024/02/26 07:49:11;;;;;;;6.90;3.50;;;7.20;43.90;;;;;;4972927;28;20237;-64
2024/02/26 07:51:37;;;;;;;7.47;4.03;;;7.20;43.40;;;;;;4989974;28;20436;-64
2024/02/26 07:54:04;;;;;;;5.93;3.40;;;7.10;43.10;;;;;;4986195;28;20208;-63
2024/02/26 07:56:30;;;;;;;5.07;3.30;;;6.90;43.30;;;;;;4990733;28;20634;-63
2024/02/26 07:58:57;;;;;;;3.60;3.30;;;6.90;43.60;;;;;;4997889;28;20210;-64
2024/02/26 08:01:25;;;;;;;5.63;3.20;;;6.90;43.70;;;;;;4988572;28;20243;-63
2024/02/26 08:03:52;;;;;;;6.43;3.40;;;6.80;43.90;;;;;;4993518;28;20727;-60
2024/02/26 08:06:18;;;;;;;3.80;2.87;;;6.90;44.20;;;;;;4982939;28;20225;-64
2024/02/26 08:08:45;;;;;;;4.20;3.17;;;7.00;43.80;;;;;;4980954;28;20206;-62
2024/02/26 08:11:11;;;;;;;4.70;3.30;;;7.10;43.30;;;;;;4987228;28;20288;-63
2024/02/26 08:13:38;;;;;;;3.50;3.20;;;7.00;43.00;;;;;;4993018;28;20211;-66
2024/02/26 08:16:05;;;;;;;7.83;3.30;;;7.00;43.00;;;;;;4993986;28;20264;-62
2024/02/26 08:18:31;;;;;;;6.50;3.10;;;7.10;43.70;;;;;;4989767;28;20226;-63
2024/02/26 08:20:58;;;;;;;7.53;3.50;;;7.30;43.20;;;;;;4988278;28;20203;-63
2024/02/26 08:23:25;;;;;;;5.83;3.10;;;7.40;43.20;;;;;;4994783;28;20254;-63
2024/02/26 08:25:50;;;;;;;4.80;3.77;;;7.40;42.10;;;;;;4994178;28;20235;-63
2024/02/26 08:28:17;;;;;;;3.77;3.30;;;7.50;42.50;;;;;;4994403;28;20237;-64
2024/02/26 08:30:44;;;;;;;8.20;3.43;;;7.60;42.70;;;;;;4994296;28;20234;-67
2024/02/26 08:33:11;;;;;;;5.37;3.37;;;7.70;43.10;;;;;;4990091;28;20596;-68
2024/02/26 08:35:38;;;;;;;6.37;3.50;;;7.80;42.10;;;;;;4963844;28;20211;-66
2024/02/26 08:38:04;;;;;;;4.00;3.10;;;7.80;42.10;;;;;;4988332;28;20225;-64
2024/02/26 08:40:31;;;;;;;8.40;3.63;;;7.80;42.20;;;;;;4982544;28;20266;-64
2024/02/26 08:42:57;;;;;;;5.37;3.43;;;7.80;41.90;;;;;;4990871;28;20624;-65
2024/02/26 08:45:24;;;;;;;6.53;2.90;;;7.80;42.60;;;;;;4984234;28;20226;-64
2024/02/26 08:47:50;;;;;;;4.80;3.23;;;7.90;42.50;;;;;;4988590;28;20244;-64
2024/02/26 08:50:17;;;;;;;5.00;3.13;;;7.90;42.10;;;;;;4975340;28;20222;-64
2024/02/26 08:52:44;;;;;;;4.30;3.20;;;8.10;41.30;;;;;;4974580;28;20227;-64
2024/02/26 08:55:10;;;;;;;9.53;3.40;;;8.00;41.60;;;;;;4987476;28;20239;-64
2024/02/26 08:57:38;;;;;;;4.50;3.53;;;8.00;41.60;;;;;;4973837;28;20246;-63
2024/02/26 09:00:05;;;;;;;6.47;3.50;;;8.00;41.20;;;;;;4990617;28;20299;-70
2024/02/26 09:02:32;;;;;;;4.10;3.57;;;8.10;41.10;;;;;;4989140;28;20330;-65
2024/02/26 09:04:58;;;;;;;6.40;3.30;;;8.20;41.30;;;;;;4991942;28;20215;-65
2024/02/26 09:07:25;;;;;;;3.53;3.10;;;8.30;41.20;;;;;;4986948;28;20207;-64
2024/02/26 09:09:50;;;;;;;5.10;3.00;;;8.30;40.50;;;;;;4991962;28;20457;-64
2024/02/26 09:12:17;;;;;;;5.07;3.40;;;8.30;41.00;;;;;;4993228;28;20223;-63
2024/02/26 09:14:44;;;;;;;5.30;3.10;;;8.20;41.00;;;;;;4987215;28;20208;-63
2024/02/26 09:17:10;;;;;;;4.70;3.43;;;8.20;41.10;;;;;;4977247;28;20242;-69
2024/02/26 09:19:37;;;;;;;4.57;3.50;;;8.30;41.90;;;;;;4979011;28;20246;-65
2024/02/26 09:22:04;;;;;;;4.13;3.20;;;8.50;41.20;;;;;;4981790;28;21002;-65
2024/02/26 09:24:31;;;;;;;3.60;3.30;;;8.70;42.40;;;;;;4967030;28;20769;-63
2024/02/26 09:26:57;;;;;;;5.07;2.80;;;8.80;41.20;;;;;;4979928;28;20204;-63
2024/02/26 09:29:26;;;;;;;5.23;3.37;;;8.80;40.50;;;;;;4982676;28;20204;-64
2024/02/26 09:31:52;;;;;;;6.87;3.50;;;8.80;40.70;;;;;;4966396;28;20254;-64
2024/02/26 09:34:19;;;;;;;3.87;2.80;;;8.90;40.40;;;;;;4981278;28;20241;-62
2024/02/26 10:26:05;;;;;;;2.53;2.30;;;10.40;35.50;;;;;;5307444;23;20305;-61
2024/02/26 10:28:32;;;;;;;2.77;2.30;;;10.30;35.50;;;;;;4977695;28;20252;-64
2024/02/26 10:30:58;;;;;;;5.00;2.67;;;10.50;35.30;;;;;;4981177;28;20265;-62
2024/02/26 10:33:25;;;;;;;3.53;2.20;;;10.50;34.50;;;;;;4991253;28;20218;-61
2024/02/26 10:35:51;;;;;;;6.03;2.40;;;10.60;35.00;;;;;;4983675;28;20209;-61
2024/02/26 10:38:20;;;;;;;3.83;2.50;;;10.70;34.90;;;;;;4972290;28;20235;-61
2024/02/26 10:40:46;;;;;;;4.90;2.73;;;10.90;35.40;;;;;;4986879;28;20215;-61
2024/02/26 10:45:48;;;;;;;5.00;3.20;;;10.90;35.20;;;;;;5060801;23;20291;-61
2024/02/26 10:48:15;;;;;;;8.17;2.57;;;11.10;35.40;;;;;;4979449;28;20249;-61
2024/02/26 10:50:41;;;;;;;4.30;2.33;;;11.20;35.50;;;;;;4977545;28;20286;-61
2024/02/26 10:53:08;;;;;;;4.33;2.30;;;11.20;35.20;;;;;;4994530;28;20226;-61
2024/02/26 10:55:35;;;;;;;2.60;2.40;;;11.20;35.00;;;;;;5005163;28;20583;-62
2024/02/26 10:58:02;;;;;;;4.13;2.03;;;11.30;35.10;;;;;;5002106;28;20228;-61
2024/02/26 11:00:29;;;;;;;2.20;2.00;;;11.40;34.10;;;;;;5003859;28;20290;-62
2024/02/26 11:02:58;;;;;;;2.13;1.80;;;11.40;33.10;;;;;;5001701;28;20235;-62
2024/02/26 11:05:24;;;;;;;2.33;2.20;;;11.50;33.00;;;;;;4982160;28;20290;-62
2024/02/26 11:07:51;;;;;;;3.43;2.27;;;11.70;32.20;;;;;;4997546;28;20243;-62
2024/02/26 11:10:18;;;;;;;2.77;1.70;;;11.90;31.40;;;;;;5001442;28;20605;-64
2024/02/26 11:12:44;;;;;;;1.90;1.80;;;12.20;30.70;;;;;;4993205;28;20307;-63
2024/02/26 11:15:11;;;;;;;2.20;1.60;;;12.60;31.30;;;;;;4998231;28;20262;-62
2024/02/26 11:17:38;;;;;;;2.53;1.80;;;12.90;31.20;;;;;;4999110;28;20262;-63
2024/02/26 11:20:05;;;;;;;4.20;1.70;;;13.00;30.40;;;;;;5002934;28;20296;-63
2024/02/26 11:22:32;;;;;;;2.80;1.70;;;13.00;30.50;;;;;;4997628;28;20236;-63
2024/02/26 11:25:00;;;;;;;2.93;1.80;;;13.20;29.90;;;;;;4999195;28;20220;-63
2024/02/26 11:27:29;;;;;;;1.93;1.80;;;13.50;30.20;;;;;;4997188;28;20208;-64
2024/02/26 11:29:57;;;;;;;2.63;1.80;;;13.70;29.30;;;;;;4999235;28;20261;-63
2024/02/26 11:32:23;;;;;;;2.17;1.97;;;14.00;28.70;;;;;;5002333;28;20224;-63
2024/02/26 11:34:50;;;;;;;1.60;1.40;;;13.90;28.80;;;;;;4999513;28;20200;-63
2024/02/26 11:37:17;;;;;;;1.80;1.70;;;13.50;28.60;;;;;;5000510;28;20209;-64
2024/02/26 11:39:44;;;;;;;1.87;1.70;;;13.60;29.20;;;;;;4988482;28;20210;-62
2024/02/26 11:42:10;;;;;;;2.70;1.57;;;14.10;29.20;;;;;;4999696;28;20267;-63
2024/02/26 11:44:39;;;;;;;2.67;1.60;;;14.60;27.70;;;;;;5003557;28;20210;-63
2024/02/26 11:47:06;;;;;;;3.83;2.07;;;14.40;28.30;;;;;;4991107;28;20217;-62
2024/02/26 11:49:34;;;;;;;2.13;1.90;;;14.10;28.30;;;;;;4984300;28;22151;-63
2024/02/26 11:52:00;;;;;;;3.60;1.90;;;13.90;28.60;;;;;;5000184;28;20279;-63
2024/02/26 11:54:27;;;;;;;3.00;1.70;;;14.20;28.00;;;;;;5000361;28;20210;-64
2024/02/26 11:56:54;;;;;;;4.03;2.00;;;15.00;27.50;;;;;;5000893;28;20215;-63
2024/02/26 11:59:20;;;;;;;2.50;2.30;;;15.30;26.30;;;;;;5002580;28;20243;-63
2024/02/26 12:01:47;;;;;;;2.83;2.53;;;15.50;25.50;;;;;;5001162;28;20291;-63
2024/02/26 12:04:15;;;;;;;2.17;1.97;;;16.00;25.70;;;;;;4994083;28;20209;-63
2024/02/26 12:06:40;;;;;;;2.20;2.03;;;17.60;24.50;;;;;;5003802;28;20214;-63
2024/02/26 12:09:07;;;;;;;2.03;1.77;;;18.60;23.40;;;;;;5001682;28;20253;-63
2024/02/26 12:11:33;;;;;;;2.40;1.57;;;19.60;22.00;;;;;;5010148;28;20261;-63
2024/02/26 12:14:00;;;;;;;4.23;1.80;;;20.30;21.80;;;;;;5008976;28;20207;-63
2024/02/26 12:16:27;;;;;;;3.63;1.80;;;19.40;21.70;;;;;;4999884;28;20610;-63
2024/02/26 12:18:53;;;;;;;1.40;1.33;;;19.30;22.30;;;;;;4996933;28;20247;-63
2024/02/26 12:21:19;;;;;;;1.67;1.50;;;19.30;22.60;;;;;;4996310;28;20653;-63
2024/02/26 12:23:46;;;;;;;4.25;1.58;;;18.90;22.90;;;;;;4999366;28;20302;-62
2024/02/26 12:26:14;;;;;;;1.30;1.17;;;18.90;22.20;;;;;;5006747;28;20242;-63
2024/02/26 12:28:40;;;;;;;3.65;1.60;;;18.10;22.70;;;;;;5007222;28;20208;-63
2024/02/26 12:31:07;;;;;;;2.10;1.00;;;19.20;22.10;;;;;;5001700;28;20247;-63
2024/02/26 12:33:33;;;;;;;2.15;1.35;;;18.90;22.10;;;;;;5002680;28;20207;-62
2024/02/26 12:36:00;;;;;;;1.20;1.20;;;17.80;23.30;;;;;;5010795;28;20243;-63
2024/02/26 12:38:26;;;;;;;2.10;1.33;;;18.90;22.10;;;;;;5005197;28;20285;-63
2024/02/26 12:40:53;;;;;;;1.27;1.17;;;19.40;22.20;;;;;;5006184;28;20231;-63
2024/02/26 12:43:19;;;;;;;3.17;1.30;;;19.60;21.90;;;;;;5006243;28;20582;-63
2024/02/26 12:45:47;;;;;;;3.05;1.30;;;19.40;22.10;;;;;;5004304;28;20242;-62
2024/02/26 12:48:14;;;;;;;1.55;1.38;;;18.40;23.00;;;;;;5002654;28;20219;-63
2024/02/26 12:50:40;;;;;;;2.15;1.13;;;17.80;23.10;;;;;;5001258;28;20215;-62
2024/02/26 12:53:07;;;;;;;1.45;1.35;;;17.30;24.10;;;;;;5000633;28;20636;-61
2024/02/26 12:55:34;;;;;;;2.65;2.00;;;17.40;24.50;;;;;;5008438;28;20269;-62
2024/02/26 12:58:00;;;;;;;1.95;1.75;;;17.40;24.60;;;;;;5003946;28;20303;-62
2024/02/26 13:00:26;;;;;;;3.47;1.88;;;17.90;24.60;;;;;;5002803;28;20297;-63
2024/02/26 13:02:54;;;;;;;3.35;1.90;;;17.90;24.40;;;;;;5005803;28;20227;-63
2024/02/26 13:05:21;;;;;;;2.33;1.70;;;18.10;24.70;;;;;;4997867;28;20585;-63
2024/02/26 13:07:47;;;;;;;2.33;1.60;;;18.30;24.10;;;;;;4997421;28;20239;-61
2024/02/26 13:10:14;;;;;;;2.05;1.83;;;18.80;23.00;;;;;;5008113;28;20207;-62
2024/02/26 13:12:40;;;;;;;4.40;2.15;;;18.20;23.90;;;;;;4996457;28;20227;-63
2024/02/26 13:15:07;;;;;;;2.95;1.88;;;17.90;24.40;;;;;;5004940;28;20301;-63
2024/02/26 13:17:33;;;;;;;2.92;2.10;;;19.10;23.40;;;;;;4999289;28;20254;-63
2024/02/26 13:20:00;;;;;;;2.80;1.98;;;19.60;22.80;;;;;;5004253;28;20200;-63
2024/02/26 13:22:26;;;;;;;3.03;1.65;;;19.70;22.30;;;;;;5008400;28;20285;-62
2024/02/26 13:24:53;;;;;;;1.98;1.58;;;18.20;22.50;;;;;;4998614;28;20333;-63
2024/02/26 13:27:22;;;;;;;1.73;1.63;;;16.90;24.10;;;;;;4987305;28;20661;-63
2024/02/26 13:29:49;;;;;;;2.00;1.80;;;16.10;25.60;;;;;;4993956;28;21064;-63
2024/02/26 13:32:15;;;;;;;2.30;1.93;;;15.60;26.40;;;;;;4997957;28;20271;-63
2024/02/26 13:34:42;;;;;;;1.57;1.47;;;15.30;27.20;;;;;;5001279;28;20212;-63
2024/02/26 13:37:09;;;;;;;1.67;1.57;;;15.30;25.30;;;;;;5001760;28;20320;-63
2024/02/26 13:42:20;;;;;;;1.70;1.60;;;14.80;25.60;;;;;;5004710;28;20222;-62
2024/02/26 13:44:46;;;;;;;3.47;1.60;;;14.80;25.50;;;;;;4994612;28;20319;-62
2024/02/26 13:47:14;;;;;;;3.67;1.63;;;14.80;25.60;;;;;;5010694;28;20311;-63